sensor_id;sensor_type;location;lat;lon;timestamp;temperature;humidity
11474;DHT22;5793;52.238;13.438;2023-07-02T00:00:40;18.10;99.90
11474;DHT22;5793;52.238;13.438;2023-07-02T00:03:08;18.00;99.90
11474;DHT22;5793;52.238;13.438;2023-07-02T00:05:36;18.00;99.90
11474;DHT22;5793;52.238;13.438;2023-07-02T00:08:04;18.00;99.90
11474;DHT22;5793;52.238;13.438;2023-07-02T00:10:33;18.00;99.90
11474;DHT22;5793;52.238;13.438;2023-07-02T00:13:01;18.00;99.90
11474;DHT22;5793;52.238;13.438;2023-07-02T00:15:29;18.00;99.90
11474;DHT22;5793;52.238;13.438;2023-07-02T00:17:57;18.00;99.90
11474;DHT22;5793;52.238;13.438;2023-07-02T00:20:25;18.00;99.90
11474;DHT22;5793;52.238;13.438;2023-07-02T00:22:52;18.10;99.90
11474;DHT22;5793;52.238;13.438;2023-07-02T00:25:21;18.10;99.90
11474;DHT22;5793;52.238;13.438;2023-07-02T00:27:50;18.10;99.90
11474;DHT22;5793;52.238;13.438;2023-07-02T00:30:18;18.10;99.90
11474;DHT22;5793;52.238;13.438;2023-07-02T00:32:46;18.10;99.90
11474;DHT22;5793;52.238;13.438;2023-07-02T00:35:14;18.10;99.90
11474;DHT22;5793;52.238;13.438;2023-07-02T00:37:42;18.00;99.90
11474;DHT22;5793;52.238;13.438;2023-07-02T00:40:10;18.10;99.90
11474;DHT22;5793;52.238;13.438;2023-07-02T00:42:38;18.10;99.90
11474;DHT22;5793;52.238;13.438;2023-07-02T00:45:08;18.10;99.90
11474;DHT22;5793;52.238;13.438;2023-07-02T00:47:36;18.10;99.90
11474;DHT22;5793;52.238;13.438;2023-07-02T00:50:05;18.10;99.90
11474;DHT22;5793;52.238;13.438;2023-07-02T00:52:36;18.10;99.90
11474;DHT22;5793;52.238;13.438;2023-07-02T00:55:04;18.00;99.90
11474;DHT22;5793;52.238;13.438;2023-07-02T00:57:32;18.00;99.90
11474;DHT22;5793;52.238;13.438;2023-07-02T01:00:00;18.00;99.90
11474;DHT22;5793;52.238;13.438;2023-07-02T01:02:31;18.00;99.90
11474;DHT22;5793;52.238;13.438;2023-07-02T01:04:58;18.00;99.90
11474;DHT22;5793;52.238;13.438;2023-07-02T01:07:28;17.90;99.90
11474;DHT22;5793;52.238;13.438;2023-07-02T01:09:56;17.90;99.90
11474;DHT22;5793;52.238;13.438;2023-07-02T01:12:24;17.90;99.90
11474;DHT22;5793;52.238;13.438;2023-07-02T01:14:56;18.00;99.90
11474;DHT22;5793;52.238;13.438;2023-07-02T01:17:27;17.90;99.90
11474;DHT22;5793;52.238;13.438;2023-07-02T01:19:57;17.90;99.90
11474;DHT22;5793;52.238;13.438;2023-07-02T01:22:27;17.90;99.90
11474;DHT22;5793;52.238;13.438;2023-07-02T01:24:56;17.90;99.90
11474;DHT22;5793;52.238;13.438;2023-07-02T01:27:27;18.00;99.90
11474;DHT22;5793;52.238;13.438;2023-07-02T01:29:55;18.00;99.90
11474;DHT22;5793;52.238;13.438;2023-07-02T01:32:23;17.90;99.90
11474;DHT22;5793;52.238;13.438;2023-07-02T01:34:51;17.90;99.90
11474;DHT22;5793;52.238;13.438;2023-07-02T01:37:21;17.90;99.90
11474;DHT22;5793;52.238;13.438;2023-07-02T01:39:49;17.90;99.90
11474;DHT22;5793;52.238;13.438;2023-07-02T01:42:18;17.90;99.90
11474;DHT22;5793;52.238;13.438;2023-07-02T01:44:48;17.80;99.90
11474;DHT22;5793;52.238;13.438;2023-07-02T01:47:17;17.90;99.90
11474;DHT22;5793;52.238;13.438;2023-07-02T01:49:46;17.80;99.90
11474;DHT22;5793;52.238;13.438;2023-07-02T01:52:14;17.80;99.90
11474;DHT22;5793;52.238;13.438;2023-07-02T01:54:44;17.80;99.90
11474;DHT22;5793;52.238;13.438;2023-07-02T01:57:12;17.80;99.90
11474;DHT22;5793;52.238;13.438;2023-07-02T01:59:40;17.80;99.90
11474;DHT22;5793;52.238;13.438;2023-07-02T02:02:08;17.80;99.90
11474;DHT22;5793;52.238;13.438;2023-07-02T02:04:36;17.80;99.90
11474;DHT22;5793;52.238;13.438;2023-07-02T02:07:04;17.80;99.90
11474;DHT22;5793;52.238;13.438;2023-07-02T02:09:31;17.90;99.90
11474;DHT22;5793;52.238;13.438;2023-07-02T02:12:01;17.90;99.90
11474;DHT22;5793;52.238;13.438;2023-07-02T02:14:29;17.80;99.90
11474;DHT22;5793;52.238;13.438;2023-07-02T02:16:56;17.80;99.90
11474;DHT22;5793;52.238;13.438;2023-07-02T02:19:24;17.80;99.90
11474;DHT22;5793;52.238;13.438;2023-07-02T02:21:52;17.80;99.90
11474;DHT22;5793;52.238;13.438;2023-07-02T02:24:20;17.70;99.90
11474;DHT22;5793;52.238;13.438;2023-07-02T02:26:47;17.70;99.90
11474;DHT22;5793;52.238;13.438;2023-07-02T02:29:17;17.70;99.90
11474;DHT22;5793;52.238;13.438;2023-07-02T02:31:44;17.70;99.90
11474;DHT22;5793;52.238;13.438;2023-07-02T02:34:12;17.60;99.90
11474;DHT22;5793;52.238;13.438;2023-07-02T02:36:40;17.70;99.90
11474;DHT22;5793;52.238;13.438;2023-07-02T02:39:08;17.60;99.90
11474;DHT22;5793;52.238;13.438;2023-07-02T02:41:36;17.60;99.90
11474;DHT22;5793;52.238;13.438;2023-07-02T02:44:04;17.50;99.90
11474;DHT22;5793;52.238;13.438;2023-07-02T02:46:33;17.60;99.90
11474;DHT22;5793;52.238;13.438;2023-07-02T02:49:01;17.50;99.90
11474;DHT22;5793;52.238;13.438;2023-07-02T02:51:28;17.50;99.90
11474;DHT22;5793;52.238;13.438;2023-07-02T02:53:56;17.40;99.90
11474;DHT22;5793;52.238;13.438;2023-07-02T02:56:24;17.30;99.90
11474;DHT22;5793;52.238;13.438;2023-07-02T02:58:52;17.20;99.90
11474;DHT22;5793;52.238;13.438;2023-07-02T03:01:20;17.20;99.90
11474;DHT22;5793;52.238;13.438;2023-07-02T03:03:49;17.10;99.90
11474;DHT22;5793;52.238;13.438;2023-07-02T03:06:17;17.10;99.90
11474;DHT22;5793;52.238;13.438;2023-07-02T03:08:45;17.20;99.90
11474;DHT22;5793;52.238;13.438;2023-07-02T03:11:13;17.20;99.90
11474;DHT22;5793;52.238;13.438;2023-07-02T03:13:41;17.30;99.90
11474;DHT22;5793;52.238;13.438;2023-07-02T03:16:08;17.20;99.90
11474;DHT22;5793;52.238;13.438;2023-07-02T03:18:36;17.20;99.90
11474;DHT22;5793;52.238;13.438;2023-07-02T03:21:06;17.20;99.90
11474;DHT22;5793;52.238;13.438;2023-07-02T03:23:34;17.20;99.90
11474;DHT22;5793;52.238;13.438;2023-07-02T03:26:02;17.20;99.90
11474;DHT22;5793;52.238;13.438;2023-07-02T03:28:30;17.20;99.90
11474;DHT22;5793;52.238;13.438;2023-07-02T03:30:58;17.20;99.90
11474;DHT22;5793;52.238;13.438;2023-07-02T03:33:26;17.10;99.90
11474;DHT22;5793;52.238;13.438;2023-07-02T03:35:53;17.10;99.90
11474;DHT22;5793;52.238;13.438;2023-07-02T03:38:23;17.20;99.90
11474;DHT22;5793;52.238;13.438;2023-07-02T03:40:50;17.20;99.90
11474;DHT22;5793;52.238;13.438;2023-07-02T03:43:18;17.20;99.90
11474;DHT22;5793;52.238;13.438;2023-07-02T03:45:46;17.20;99.90
11474;DHT22;5793;52.238;13.438;2023-07-02T03:48:14;17.20;99.90
11474;DHT22;5793;52.238;13.438;2023-07-02T03:50:41;17.20;99.90
11474;DHT22;5793;52.238;13.438;2023-07-02T03:53:09;17.20;99.90
11474;DHT22;5793;52.238;13.438;2023-07-02T03:55:38;17.20;99.90
11474;DHT22;5793;52.238;13.438;2023-07-02T03:58:07;17.20;99.90
11474;DHT22;5793;52.238;13.438;2023-07-02T04:00:35;17.10;99.90
11474;DHT22;5793;52.238;13.438;2023-07-02T04:03:03;17.10;99.90
11474;DHT22;5793;52.238;13.438;2023-07-02T04:05:30;17.20;99.90
11474;DHT22;5793;52.238;13.438;2023-07-02T04:07:58;17.10;99.90
11474;DHT22;5793;52.238;13.438;2023-07-02T04:10:26;17.20;99.90
11474;DHT22;5793;52.238;13.438;2023-07-02T04:12:55;17.20;99.90
11474;DHT22;5793;52.238;13.438;2023-07-02T04:15:23;17.20;99.90
11474;DHT22;5793;52.238;13.438;2023-07-02T04:17:53;17.30;99.90
11474;DHT22;5793;52.238;13.438;2023-07-02T04:20:21;17.20;99.90
11474;DHT22;5793;52.238;13.438;2023-07-02T04:22:49;17.30;99.90
11474;DHT22;5793;52.238;13.438;2023-07-02T04:25:16;17.30;99.90
11474;DHT22;5793;52.238;13.438;2023-07-02T04:28:06;17.30;99.90
11474;DHT22;5793;52.238;13.438;2023-07-02T04:30:33;17.30;99.90
11474;DHT22;5793;52.238;13.438;2023-07-02T04:33:01;17.40;99.90
11474;DHT22;5793;52.238;13.438;2023-07-02T04:35:29;17.50;99.90
11474;DHT22;5793;52.238;13.438;2023-07-02T04:37:57;17.50;99.90
11474;DHT22;5793;52.238;13.438;2023-07-02T04:40:25;17.50;99.90
11474;DHT22;5793;52.238;13.438;2023-07-02T04:42:54;17.50;99.90
11474;DHT22;5793;52.238;13.438;2023-07-02T04:45:26;17.50;99.90
11474;DHT22;5793;52.238;13.438;2023-07-02T04:47:58;17.50;99.90
11474;DHT22;5793;52.238;13.438;2023-07-02T04:50:27;17.50;99.90
11474;DHT22;5793;52.238;13.438;2023-07-02T04:52:55;17.70;99.90
11474;DHT22;5793;52.238;13.438;2023-07-02T04:55:23;17.70;99.90
11474;DHT22;5793;52.238;13.438;2023-07-02T04:57:51;17.80;99.90
11474;DHT22;5793;52.238;13.438;2023-07-02T05:00:19;17.80;99.90
11474;DHT22;5793;52.238;13.438;2023-07-02T05:02:50;17.80;99.90
11474;DHT22;5793;52.238;13.438;2023-07-02T05:05:18;17.80;99.90
11474;DHT22;5793;52.238;13.438;2023-07-02T05:07:46;17.90;99.90
11474;DHT22;5793;52.238;13.438;2023-07-02T05:10:14;17.90;99.90
11474;DHT22;5793;52.238;13.438;2023-07-02T05:12:41;18.00;99.90
11474;DHT22;5793;52.238;13.438;2023-07-02T05:15:10;18.00;99.90
11474;DHT22;5793;52.238;13.438;2023-07-02T05:17:38;17.90;99.90
11474;DHT22;5793;52.238;13.438;2023-07-02T05:20:09;17.90;99.90
11474;DHT22;5793;52.238;13.438;2023-07-02T05:22:37;18.00;99.90
11474;DHT22;5793;52.238;13.438;2023-07-02T05:25:05;18.20;99.90
11474;DHT22;5793;52.238;13.438;2023-07-02T05:27:33;18.20;99.90
11474;DHT22;5793;52.238;13.438;2023-07-02T05:30:02;18.20;99.90
11474;DHT22;5793;52.238;13.438;2023-07-02T05:32:29;18.10;99.90
11474;DHT22;5793;52.238;13.438;2023-07-02T05:34:57;18.00;99.90
11474;DHT22;5793;52.238;13.438;2023-07-02T05:37:26;18.00;99.90
11474;DHT22;5793;52.238;13.438;2023-07-02T05:39:54;18.10;99.90
11474;DHT22;5793;52.238;13.438;2023-07-02T05:42:22;18.30;99.90
11474;DHT22;5793;52.238;13.438;2023-07-02T05:44:50;18.40;99.90
11474;DHT22;5793;52.238;13.438;2023-07-02T05:47:17;18.60;99.90
11474;DHT22;5793;52.238;13.438;2023-07-02T05:49:45;18.60;99.90
11474;DHT22;5793;52.238;13.438;2023-07-02T05:52:13;18.60;99.90
11474;DHT22;5793;52.238;13.438;2023-07-02T05:54:42;18.50;99.90
11474;DHT22;5793;52.238;13.438;2023-07-02T05:57:10;18.40;99.90
11474;DHT22;5793;52.238;13.438;2023-07-02T05:59:38;18.40;99.90
11474;DHT22;5793;52.238;13.438;2023-07-02T06:02:06;18.40;99.90
11474;DHT22;5793;52.238;13.438;2023-07-02T06:04:34;18.50;99.90
11474;DHT22;5793;52.238;13.438;2023-07-02T06:07:02;18.50;99.90
11474;DHT22;5793;52.238;13.438;2023-07-02T06:09:30;18.60;99.90
11474;DHT22;5793;52.238;13.438;2023-07-02T06:11:59;18.50;99.90
11474;DHT22;5793;52.238;13.438;2023-07-02T06:14:27;18.40;99.90
11474;DHT22;5793;52.238;13.438;2023-07-02T06:16:55;18.50;99.90
11474;DHT22;5793;52.238;13.438;2023-07-02T06:19:24;18.50;99.90
11474;DHT22;5793;52.238;13.438;2023-07-02T06:21:52;18.50;99.90
11474;DHT22;5793;52.238;13.438;2023-07-02T06:24:19;18.50;99.90
11474;DHT22;5793;52.238;13.438;2023-07-02T06:26:47;18.60;99.90
11474;DHT22;5793;52.238;13.438;2023-07-02T06:29:16;18.60;99.90
11474;DHT22;5793;52.238;13.438;2023-07-02T06:31:44;18.50;99.90
11474;DHT22;5793;52.238;13.438;2023-07-02T06:34:12;18.50;99.90
11474;DHT22;5793;52.238;13.438;2023-07-02T06:36:41;18.50;99.90
11474;DHT22;5793;52.238;13.438;2023-07-02T06:39:08;18.70;99.90
11474;DHT22;5793;52.238;13.438;2023-07-02T06:41:36;18.80;99.90
11474;DHT22;5793;52.238;13.438;2023-07-02T06:44:04;18.90;99.90
11474;DHT22;5793;52.238;13.438;2023-07-02T06:46:34;19.00;99.90
11474;DHT22;5793;52.238;13.438;2023-07-02T06:49:02;19.10;99.90
11474;DHT22;5793;52.238;13.438;2023-07-02T06:51:30;19.10;99.90
11474;DHT22;5793;52.238;13.438;2023-07-02T06:53:58;19.10;99.90
11474;DHT22;5793;52.238;13.438;2023-07-02T06:56:25;19.10;99.90
11474;DHT22;5793;52.238;13.438;2023-07-02T06:58:53;19.30;99.90
11474;DHT22;5793;52.238;13.438;2023-07-02T07:01:21;19.70;99.90
11474;DHT22;5793;52.238;13.438;2023-07-02T07:03:50;20.00;99.90
11474;DHT22;5793;52.238;13.438;2023-07-02T07:06:18;20.30;99.90
11474;DHT22;5793;52.238;13.438;2023-07-02T07:08:46;20.60;99.90
11474;DHT22;5793;52.238;13.438;2023-07-02T07:11:14;20.50;99.90
11474;DHT22;5793;52.238;13.438;2023-07-02T07:13:42;20.70;99.90
11474;DHT22;5793;52.238;13.438;2023-07-02T07:16:11;20.80;99.90
11474;DHT22;5793;52.238;13.438;2023-07-02T07:18:39;20.80;99.90
11474;DHT22;5793;52.238;13.438;2023-07-02T07:21:08;20.90;99.90
11474;DHT22;5793;52.238;13.438;2023-07-02T07:23:36;20.90;99.90
11474;DHT22;5793;52.238;13.438;2023-07-02T07:26:04;20.90;99.90
11474;DHT22;5793;52.238;13.438;2023-07-02T07:28:31;20.90;99.90
11474;DHT22;5793;52.238;13.438;2023-07-02T07:30:59;20.90;99.90
11474;DHT22;5793;52.238;13.438;2023-07-02T07:33:27;20.80;99.90
11474;DHT22;5793;52.238;13.438;2023-07-02T07:35:55;20.70;99.90
11474;DHT22;5793;52.238;13.438;2023-07-02T07:38:24;21.00;99.90
11474;DHT22;5793;52.238;13.438;2023-07-02T07:40:52;21.20;99.90
11474;DHT22;5793;52.238;13.438;2023-07-02T07:43:20;21.30;99.90
11474;DHT22;5793;52.238;13.438;2023-07-02T07:45:48;21.40;99.90
11474;DHT22;5793;52.238;13.438;2023-07-02T07:48:16;21.30;99.90
11474;DHT22;5793;52.238;13.438;2023-07-02T07:50:43;21.40;99.90
11474;DHT22;5793;52.238;13.438;2023-07-02T07:53:11;21.30;99.90
11474;DHT22;5793;52.238;13.438;2023-07-02T07:55:40;21.30;99.90
11474;DHT22;5793;52.238;13.438;2023-07-02T07:58:08;21.20;99.90
11474;DHT22;5793;52.238;13.438;2023-07-02T08:00:36;21.00;99.90
11474;DHT22;5793;52.238;13.438;2023-07-02T08:03:04;21.20;99.90
11474;DHT22;5793;52.238;13.438;2023-07-02T08:05:32;21.20;99.90
11474;DHT22;5793;52.238;13.438;2023-07-02T08:07:59;21.30;99.90
11474;DHT22;5793;52.238;13.438;2023-07-02T08:10:27;21.40;99.90
11474;DHT22;5793;52.238;13.438;2023-07-02T08:12:56;21.40;99.90
11474;DHT22;5793;52.238;13.438;2023-07-02T08:15:24;21.40;99.90
11474;DHT22;5793;52.238;13.438;2023-07-02T08:17:52;21.40;99.90
11474;DHT22;5793;52.238;13.438;2023-07-02T08:20:21;21.70;99.90
11474;DHT22;5793;52.238;13.438;2023-07-02T08:22:50;21.90;99.90
11474;DHT22;5793;52.238;13.438;2023-07-02T08:25:18;22.00;99.90
11474;DHT22;5793;52.238;13.438;2023-07-02T08:27:48;21.90;99.90
11474;DHT22;5793;52.238;13.438;2023-07-02T08:30:17;21.40;99.90
11474;DHT22;5793;52.238;13.438;2023-07-02T08:32:45;20.80;99.90
11474;DHT22;5793;52.238;13.438;2023-07-02T08:35:14;20.40;99.90
11474;DHT22;5793;52.238;13.438;2023-07-02T08:37:42;20.10;99.90
11474;DHT22;5793;52.238;13.438;2023-07-02T08:40:15;19.90;99.90
11474;DHT22;5793;52.238;13.438;2023-07-02T08:42:45;19.70;99.90
11474;DHT22;5793;52.238;13.438;2023-07-02T08:45:14;19.50;99.90
11474;DHT22;5793;52.238;13.438;2023-07-02T08:47:45;19.40;99.90
11474;DHT22;5793;52.238;13.438;2023-07-02T08:50:13;19.40;99.90
11474;DHT22;5793;52.238;13.438;2023-07-02T08:52:41;19.20;99.90
11474;DHT22;5793;52.238;13.438;2023-07-02T08:55:11;19.10;99.90
11474;DHT22;5793;52.238;13.438;2023-07-02T08:57:40;18.70;99.90
11474;DHT22;5793;52.238;13.438;2023-07-02T09:00:10;17.90;99.90
11474;DHT22;5793;52.238;13.438;2023-07-02T09:02:38;17.20;99.90
11474;DHT22;5793;52.238;13.438;2023-07-02T09:05:07;16.80;99.90
11474;DHT22;5793;52.238;13.438;2023-07-02T09:07:43;16.40;99.90
11474;DHT22;5793;52.238;13.438;2023-07-02T09:10:12;16.00;99.90
11474;DHT22;5793;52.238;13.438;2023-07-02T09:12:40;15.80;99.90
11474;DHT22;5793;52.238;13.438;2023-07-02T09:15:08;15.70;99.90
11474;DHT22;5793;52.238;13.438;2023-07-02T09:17:36;15.70;99.90
11474;DHT22;5793;52.238;13.438;2023-07-02T09:20:07;15.80;99.90
11474;DHT22;5793;52.238;13.438;2023-07-02T09:22:35;16.00;99.90
11474;DHT22;5793;52.238;13.438;2023-07-02T09:25:06;16.20;99.90
11474;DHT22;5793;52.238;13.438;2023-07-02T09:27:35;16.40;99.90
11474;DHT22;5793;52.238;13.438;2023-07-02T09:30:08;16.50;99.90
11474;DHT22;5793;52.238;13.438;2023-07-02T09:32:36;16.50;99.90
11474;DHT22;5793;52.238;13.438;2023-07-02T09:35:06;16.50;99.90
11474;DHT22;5793;52.238;13.438;2023-07-02T09:37:34;16.50;99.90
11474;DHT22;5793;52.238;13.438;2023-07-02T09:40:03;16.50;99.90
11474;DHT22;5793;52.238;13.438;2023-07-02T09:42:35;16.60;99.90
11474;DHT22;5793;52.238;13.438;2023-07-02T09:45:05;16.90;99.90
11474;DHT22;5793;52.238;13.438;2023-07-02T09:47:38;17.30;99.90
11474;DHT22;5793;52.238;13.438;2023-07-02T09:50:11;17.50;99.90
11474;DHT22;5793;52.238;13.438;2023-07-02T09:52:40;17.60;99.90
11474;DHT22;5793;52.238;13.438;2023-07-02T09:55:08;17.70;99.90
11474;DHT22;5793;52.238;13.438;2023-07-02T09:57:37;17.90;99.90
11474;DHT22;5793;52.238;13.438;2023-07-02T10:00:07;18.10;99.90
11474;DHT22;5793;52.238;13.438;2023-07-02T10:02:35;18.40;99.90
11474;DHT22;5793;52.238;13.438;2023-07-02T10:05:05;18.80;99.90
11474;DHT22;5793;52.238;13.438;2023-07-02T10:07:34;18.90;99.90
11474;DHT22;5793;52.238;13.438;2023-07-02T10:10:02;19.20;99.90
11474;DHT22;5793;52.238;13.438;2023-07-02T10:12:30;20.10;99.90
11474;DHT22;5793;52.238;13.438;2023-07-02T10:14:59;21.90;99.90
11474;DHT22;5793;52.238;13.438;2023-07-02T10:17:28;24.40;99.90
11474;DHT22;5793;52.238;13.438;2023-07-02T10:19:59;25.30;99.90
11474;DHT22;5793;52.238;13.438;2023-07-02T10:22:27;26.40;99.90
11474;DHT22;5793;52.238;13.438;2023-07-02T10:24:57;25.90;99.90
11474;DHT22;5793;52.238;13.438;2023-07-02T10:27:35;25.50;99.90
11474;DHT22;5793;52.238;13.438;2023-07-02T10:30:03;25.60;99.90
11474;DHT22;5793;52.238;13.438;2023-07-02T10:32:32;25.60;99.90
11474;DHT22;5793;52.238;13.438;2023-07-02T10:35:01;25.30;98.40
11474;DHT22;5793;52.238;13.438;2023-07-02T10:37:37;26.00;98.60
11474;DHT22;5793;52.238;13.438;2023-07-02T10:40:07;26.70;94.20
11474;DHT22;5793;52.238;13.438;2023-07-02T10:42:45;28.10;90.50
11474;DHT22;5793;52.238;13.438;2023-07-02T10:45:13;29.80;84.00
11474;DHT22;5793;52.238;13.438;2023-07-02T10:47:41;29.70;78.70
11474;DHT22;5793;52.238;13.438;2023-07-02T10:50:17;29.10;77.90
11474;DHT22;5793;52.238;13.438;2023-07-02T10:52:45;27.80;78.50
11474;DHT22;5793;52.238;13.438;2023-07-02T10:55:17;26.40;86.70
11474;DHT22;5793;52.238;13.438;2023-07-02T10:57:47;26.60;86.20
11474;DHT22;5793;52.238;13.438;2023-07-02T11:00:18;26.50;89.30
11474;DHT22;5793;52.238;13.438;2023-07-02T11:02:46;27.60;85.00
11474;DHT22;5793;52.238;13.438;2023-07-02T11:05:14;28.20;78.00
11474;DHT22;5793;52.238;13.438;2023-07-02T11:07:42;27.20;80.90
11474;DHT22;5793;52.238;13.438;2023-07-02T11:10:19;28.30;80.20
11474;DHT22;5793;52.238;13.438;2023-07-02T11:12:47;27.40;80.30
11474;DHT22;5793;52.238;13.438;2023-07-02T11:15:15;25.80;83.60
11474;DHT22;5793;52.238;13.438;2023-07-02T11:17:44;26.00;83.80
11474;DHT22;5793;52.238;13.438;2023-07-02T11:20:13;27.10;82.00
11474;DHT22;5793;52.238;13.438;2023-07-02T11:22:41;27.10;82.60
11474;DHT22;5793;52.238;13.438;2023-07-02T11:25:13;27.10;83.80
11474;DHT22;5793;52.238;13.438;2023-07-02T11:27:43;26.00;83.10
11474;DHT22;5793;52.238;13.438;2023-07-02T11:30:12;24.20;85.80
11474;DHT22;5793;52.238;13.438;2023-07-02T11:32:47;23.00;89.80
11474;DHT22;5793;52.238;13.438;2023-07-02T11:35:16;22.00;91.00
11474;DHT22;5793;52.238;13.438;2023-07-02T11:37:44;21.70;90.30
11474;DHT22;5793;52.238;13.438;2023-07-02T11:40:13;21.60;90.30
11474;DHT22;5793;52.238;13.438;2023-07-02T11:42:42;21.70;91.40
11474;DHT22;5793;52.238;13.438;2023-07-02T11:45:10;21.90;90.40
11474;DHT22;5793;52.238;13.438;2023-07-02T11:47:38;22.50;88.60
11474;DHT22;5793;52.238;13.438;2023-07-02T11:50:07;22.70;86.60
11474;DHT22;5793;52.238;13.438;2023-07-02T11:52:50;22.80;84.50
11474;DHT22;5793;52.238;13.438;2023-07-02T11:55:18;23.00;84.70
11474;DHT22;5793;52.238;13.438;2023-07-02T11:57:47;23.10;82.60
11474;DHT22;5793;52.238;13.438;2023-07-02T12:00:16;23.20;83.40
11474;DHT22;5793;52.238;13.438;2023-07-02T12:02:44;23.30;86.10
11474;DHT22;5793;52.238;13.438;2023-07-02T12:05:12;23.30;81.00
11474;DHT22;5793;52.238;13.438;2023-07-02T12:07:40;23.50;81.80
11474;DHT22;5793;52.238;13.438;2023-07-02T12:10:08;23.40;83.60
11474;DHT22;5793;52.238;13.438;2023-07-02T12:12:36;23.60;83.10
11474;DHT22;5793;52.238;13.438;2023-07-02T12:15:06;23.60;79.80
11474;DHT22;5793;52.238;13.438;2023-07-02T12:17:34;23.50;81.40
11474;DHT22;5793;52.238;13.438;2023-07-02T12:20:02;23.30;83.80
11474;DHT22;5793;52.238;13.438;2023-07-02T12:22:30;23.30;84.30
11474;DHT22;5793;52.238;13.438;2023-07-02T12:24:59;23.30;82.50
11474;DHT22;5793;52.238;13.438;2023-07-02T12:27:27;23.50;83.00
11474;DHT22;5793;52.238;13.438;2023-07-02T12:29:55;23.70;83.30
11474;DHT22;5793;52.238;13.438;2023-07-02T12:32:24;23.80;80.10
11474;DHT22;5793;52.238;13.438;2023-07-02T12:34:52;23.90;82.80
11474;DHT22;5793;52.238;13.438;2023-07-02T12:37:20;24.00;79.80
11474;DHT22;5793;52.238;13.438;2023-07-02T12:39:48;23.70;78.30
11474;DHT22;5793;52.238;13.438;2023-07-02T12:42:16;23.40;78.80
11474;DHT22;5793;52.238;13.438;2023-07-02T12:44:44;23.10;80.80
11474;DHT22;5793;52.238;13.438;2023-07-02T12:47:12;23.40;81.90
11474;DHT22;5793;52.238;13.438;2023-07-02T12:49:41;23.50;81.60
11474;DHT22;5793;52.238;13.438;2023-07-02T12:52:09;23.50;80.60
11474;DHT22;5793;52.238;13.438;2023-07-02T12:54:36;23.60;80.80
11474;DHT22;5793;52.238;13.438;2023-07-02T12:57:05;23.50;79.70
11474;DHT22;5793;52.238;13.438;2023-07-02T12:59:33;23.40;80.60
11474;DHT22;5793;52.238;13.438;2023-07-02T13:02:01;23.50;79.70
11474;DHT22;5793;52.238;13.438;2023-07-02T13:04:29;23.50;78.60
11474;DHT22;5793;52.238;13.438;2023-07-02T13:06:58;23.30;77.00
11474;DHT22;5793;52.238;13.438;2023-07-02T13:09:26;23.20;80.00
11474;DHT22;5793;52.238;13.438;2023-07-02T13:11:54;23.20;74.50
11474;DHT22;5793;52.238;13.438;2023-07-02T13:14:21;23.00;76.30
11474;DHT22;5793;52.238;13.438;2023-07-02T13:16:49;22.90;74.80
11474;DHT22;5793;52.238;13.438;2023-07-02T13:19:17;22.90;75.10
11474;DHT22;5793;52.238;13.438;2023-07-02T13:21:45;23.00;76.10
11474;DHT22;5793;52.238;13.438;2023-07-02T13:24:14;23.20;77.70
11474;DHT22;5793;52.238;13.438;2023-07-02T13:26:42;23.40;77.00
11474;DHT22;5793;52.238;13.438;2023-07-02T13:29:11;23.40;75.60
11474;DHT22;5793;52.238;13.438;2023-07-02T13:31:39;23.30;74.90
11474;DHT22;5793;52.238;13.438;2023-07-02T13:34:07;23.20;77.30
11474;DHT22;5793;52.238;13.438;2023-07-02T13:36:35;23.40;76.10
11474;DHT22;5793;52.238;13.438;2023-07-02T13:39:02;23.50;75.90
11474;DHT22;5793;52.238;13.438;2023-07-02T13:41:32;23.50;74.00
11474;DHT22;5793;52.238;13.438;2023-07-02T13:44:00;23.40;75.40
11474;DHT22;5793;52.238;13.438;2023-07-02T13:46:28;23.60;77.40
11474;DHT22;5793;52.238;13.438;2023-07-02T13:48:56;23.70;78.30
11474;DHT22;5793;52.238;13.438;2023-07-02T13:51:24;23.70;73.40
11474;DHT22;5793;52.238;13.438;2023-07-02T13:53:51;23.80;76.10
11474;DHT22;5793;52.238;13.438;2023-07-02T13:56:19;23.70;74.00
11474;DHT22;5793;52.238;13.438;2023-07-02T13:59:00;23.50;72.00
11474;DHT22;5793;52.238;13.438;2023-07-02T14:01:28;23.60;74.00
11474;DHT22;5793;52.238;13.438;2023-07-02T14:03:56;23.60;74.20
11474;DHT22;5793;52.238;13.438;2023-07-02T14:06:24;23.50;75.10
11474;DHT22;5793;52.238;13.438;2023-07-02T14:08:52;23.30;74.90
11474;DHT22;5793;52.238;13.438;2023-07-02T14:11:21;23.20;74.10
11474;DHT22;5793;52.238;13.438;2023-07-02T14:13:49;23.40;74.80
11474;DHT22;5793;52.238;13.438;2023-07-02T14:16:18;23.40;75.10
11474;DHT22;5793;52.238;13.438;2023-07-02T14:18:46;23.20;74.10
11474;DHT22;5793;52.238;13.438;2023-07-02T14:21:14;23.10;73.80
11474;DHT22;5793;52.238;13.438;2023-07-02T14:23:43;23.10;73.70
11474;DHT22;5793;52.238;13.438;2023-07-02T14:26:11;23.00;73.20
11474;DHT22;5793;52.238;13.438;2023-07-02T14:28:39;23.00;72.20
11474;DHT22;5793;52.238;13.438;2023-07-02T14:31:07;23.10;75.20
11474;DHT22;5793;52.238;13.438;2023-07-02T14:33:37;23.40;73.80
11474;DHT22;5793;52.238;13.438;2023-07-02T14:36:06;23.20;72.80
11474;DHT22;5793;52.238;13.438;2023-07-02T14:38:34;23.30;73.90
11474;DHT22;5793;52.238;13.438;2023-07-02T14:41:02;23.40;73.80
11474;DHT22;5793;52.238;13.438;2023-07-02T14:46:08;23.50;75.90
11474;DHT22;5793;52.238;13.438;2023-07-02T14:48:39;23.30;73.70
11474;DHT22;5793;52.238;13.438;2023-07-02T14:51:07;23.10;73.30
11474;DHT22;5793;52.238;13.438;2023-07-02T14:53:37;23.20;74.40
11474;DHT22;5793;52.238;13.438;2023-07-02T14:56:05;23.20;72.80
11474;DHT22;5793;52.238;13.438;2023-07-02T14:58:33;23.10;71.60
11474;DHT22;5793;52.238;13.438;2023-07-02T15:01:01;23.00;70.70
11474;DHT22;5793;52.238;13.438;2023-07-02T15:03:29;22.80;70.80
11474;DHT22;5793;52.238;13.438;2023-07-02T15:06:10;22.90;69.60
11474;DHT22;5793;52.238;13.438;2023-07-02T15:08:39;22.90;69.70
11474;DHT22;5793;52.238;13.438;2023-07-02T15:11:08;22.80;70.40
11474;DHT22;5793;52.238;13.438;2023-07-02T15:13:36;22.80;70.30
11474;DHT22;5793;52.238;13.438;2023-07-02T15:16:05;22.90;71.10
11474;DHT22;5793;52.238;13.438;2023-07-02T15:18:33;22.80;70.30
11474;DHT22;5793;52.238;13.438;2023-07-02T15:21:01;22.60;71.10
11474;DHT22;5793;52.238;13.438;2023-07-02T15:23:30;22.70;72.00
11474;DHT22;5793;52.238;13.438;2023-07-02T15:26:00;22.60;71.20
11474;DHT22;5793;52.238;13.438;2023-07-02T15:28:29;22.50;70.90
11474;DHT22;5793;52.238;13.438;2023-07-02T15:30:59;22.60;70.80
11474;DHT22;5793;52.238;13.438;2023-07-02T15:33:30;22.80;71.20
11474;DHT22;5793;52.238;13.438;2023-07-02T15:35:59;22.70;70.20
11474;DHT22;5793;52.238;13.438;2023-07-02T15:38:27;22.70;70.00
11474;DHT22;5793;52.238;13.438;2023-07-02T15:41:07;22.80;69.20